Terminal Aerodrome Forecast
Issued by NWS

Home | Current Version | Previous Version | Text Only | Print | Product List | Glossary On
Versions: 1 2 3 4 5 6 7 8 9 10 11 12
000
FTUS45 KABQ 281722
TAFFMN
TAF
KFMN 281722Z 2818/2918 12008KT P6SM FEW120
     FM282100 16010KT P6SM SCT100
     FM290000 14009KT P6SM VCSH BKN100
     FM290600 10008KT P6SM OVC090=

USA.gov is the U.S. government's official web portal to all federal, state and local government web resources and services.